createdAt,value
2022-08-08T00:00:53.279Z,3.70
2022-08-08T00:03:20.088Z,3.97
2022-08-08T00:06:43.562Z,4.03
2022-08-08T00:09:56.737Z,3.73
2022-08-08T00:13:10.007Z,3.30
2022-08-08T00:16:27.637Z,3.43
2022-08-08T00:19:35.513Z,3.57
2022-08-08T00:22:43.817Z,4.20
2022-08-08T00:25:51.259Z,3.30
2022-08-08T00:29:02.391Z,3.70
2022-08-08T00:32:21.475Z,3.77
2022-08-08T00:35:48.068Z,3.87
2022-08-08T00:39:36.047Z,3.60
2022-08-08T00:43:19.545Z,3.80
2022-08-08T00:46:55.819Z,3.80
2022-08-08T00:50:52.290Z,3.80
2022-08-08T00:54:31.772Z,3.93
2022-08-08T00:58:21.339Z,3.70
2022-08-08T01:01:38.354Z,3.47
2022-08-08T01:05:58.929Z,3.70
2022-08-08T01:09:35.807Z,3.43
2022-08-08T01:13:04.936Z,3.93
2022-08-08T01:16:37.981Z,3.93
2022-08-08T01:20:21.945Z,4.00
2022-08-08T01:24:16.391Z,4.07
2022-08-08T01:28:02.269Z,3.57
2022-08-08T01:32:15.318Z,3.53
2022-08-08T01:35:53.394Z,3.53
2022-08-08T01:39:24.162Z,3.63
2022-08-08T01:42:36.759Z,3.77
2022-08-08T01:45:59.339Z,3.63
2022-08-08T01:49:10.746Z,3.70
2022-08-08T01:52:53.011Z,4.17
2022-08-08T01:56:29.612Z,3.50
2022-08-08T02:00:03.115Z,3.83
2022-08-08T02:03:55.090Z,3.90
2022-08-08T02:06:55.474Z,3.90
2022-08-08T02:10:30.234Z,3.97
2022-08-08T02:13:54.850Z,3.83
2022-08-08T02:17:04.257Z,4.07
2022-08-08T02:21:00.011Z,3.80
2022-08-08T02:23:48.983Z,4.47
2022-08-08T02:27:03.574Z,4.30
2022-08-08T02:30:21.263Z,4.07
2022-08-08T02:34:00.394Z,3.67
2022-08-08T02:37:52.066Z,3.60
2022-08-08T02:41:17.803Z,3.90
2022-08-08T02:45:01.838Z,3.60
2022-08-08T02:48:37.011Z,4.10
2022-08-08T02:52:00.360Z,4.03
2022-08-08T02:55:23.713Z,3.87
2022-08-08T02:59:17.182Z,3.60
2022-08-08T03:05:00.498Z,3.97
2022-08-08T03:07:41.729Z,4.00
2022-08-08T03:12:03.059Z,3.60
2022-08-08T03:15:57.089Z,4.27
2022-08-08T03:19:22.621Z,3.57
2022-08-08T03:22:38.853Z,3.30
2022-08-08T03:25:46.513Z,3.63
2022-08-08T03:28:59.999Z,3.47
2022-08-08T03:32:28.985Z,4.00
2022-08-08T03:35:38.959Z,3.97
2022-08-08T03:38:55.716Z,3.70
2022-08-08T03:42:27.229Z,3.87
2022-08-08T03:46:03.230Z,3.70
2022-08-08T03:49:38.197Z,3.60
2022-08-08T03:52:19.054Z,3.53
2022-08-08T03:55:55.957Z,3.67
2022-08-08T03:58:51.618Z,3.77
2022-08-08T04:02:13.066Z,3.73
2022-08-08T04:05:19.526Z,3.73
2022-08-08T04:08:33.629Z,3.90
2022-08-08T04:11:58.602Z,3.67
2022-08-08T04:15:06.371Z,3.40
2022-08-08T04:18:17.107Z,3.80
2022-08-08T04:21:22.997Z,4.00
2022-08-08T04:24:28.619Z,4.37
2022-08-08T04:28:01.409Z,3.77
2022-08-08T04:30:57.596Z,4.10
2022-08-08T04:34:00.369Z,3.50
2022-08-08T04:37:03.864Z,3.87
2022-08-08T04:40:10.713Z,3.87
2022-08-08T04:43:16.451Z,4.00
2022-08-08T04:46:21.327Z,4.07
2022-08-08T04:49:28.961Z,3.43
2022-08-08T04:53:00.591Z,3.77
2022-08-08T04:56:07.912Z,3.87
2022-08-08T04:59:10.731Z,4.17
2022-08-08T05:02:14.903Z,3.60
2022-08-08T05:05:44.685Z,3.87
2022-08-08T05:08:51.363Z,3.77
2022-08-08T05:11:57.262Z,3.37
2022-08-08T05:14:59.979Z,3.93
2022-08-08T05:18:07.114Z,3.80
2022-08-08T05:21:10.826Z,4.73
2022-08-08T05:24:17.896Z,4.17
2022-08-08T05:27:25.164Z,4.03
2022-08-08T05:30:28.577Z,3.70
2022-08-08T05:33:43.950Z,3.50
2022-08-08T05:36:54.028Z,3.77
2022-08-08T05:40:04.803Z,3.70
2022-08-08T05:43:38.555Z,4.03
2022-08-08T05:46:33.801Z,4.20
2022-08-08T05:49:38.905Z,4.37
2022-08-08T05:52:57.783Z,4.17
2022-08-08T05:56:21.120Z,3.97
2022-08-08T06:00:00.335Z,3.63
2022-08-08T06:03:06.664Z,4.13
2022-08-08T06:06:11.026Z,4.13
2022-08-08T06:09:58.448Z,4.60
2022-08-08T06:12:49.016Z,4.13
2022-08-08T06:15:55.809Z,4.97
2022-08-08T06:19:01.975Z,4.30
2022-08-08T06:26:34.734Z,4.10
2022-08-08T06:29:02.471Z,4.37
2022-08-08T06:32:15.018Z,4.73
2022-08-08T06:36:06.567Z,3.90
2022-08-08T06:38:47.819Z,3.90
2022-08-08T06:41:56.701Z,3.60
2022-08-08T06:45:00.841Z,3.17
2022-08-08T06:48:08.674Z,3.37
2022-08-08T06:51:15.811Z,3.63
2022-08-08T06:54:20.584Z,3.53
2022-08-08T06:57:25.010Z,3.10
2022-08-08T07:00:35.909Z,3.10
2022-08-08T07:04:39.499Z,3.00
2022-08-08T07:07:23.508Z,2.90
2022-08-08T07:10:36.271Z,2.73
2022-08-08T07:13:59.907Z,2.57
2022-08-08T07:17:08.921Z,2.23
2022-08-08T07:20:18.800Z,2.10
2022-08-08T07:23:25.236Z,2.33
2022-08-08T07:26:35.489Z,2.10
2022-08-08T07:30:02.196Z,1.87
2022-08-08T07:33:01.982Z,1.87
2022-08-08T07:36:08.249Z,2.03
2022-08-08T07:39:13.308Z,1.90
2022-08-08T07:42:19.137Z,2.07
2022-08-08T07:45:34.438Z,1.60
2022-08-08T07:48:51.298Z,1.83
2022-08-08T07:51:54.254Z,1.87
2022-08-08T07:55:03.980Z,1.80
2022-08-08T07:58:17.590Z,2.03
2022-08-08T08:01:27.077Z,2.40
2022-08-08T08:04:52.388Z,1.77
2022-08-08T08:07:57.345Z,1.80
2022-08-08T08:11:02.626Z,1.73
2022-08-08T08:14:10.666Z,2.00
2022-08-08T08:17:18.825Z,2.07
2022-08-08T08:20:29.616Z,1.90
2022-08-08T08:23:40.880Z,1.93
2022-08-08T08:26:52.494Z,2.00
2022-08-08T08:29:58.680Z,2.00
2022-08-08T08:33:01.266Z,2.10
2022-08-08T08:36:19.042Z,2.00
2022-08-08T08:39:23.898Z,1.93
2022-08-08T08:42:31.571Z,1.90
2022-08-08T08:45:40.963Z,2.42
2022-08-08T08:48:49.596Z,2.50
2022-08-08T08:51:54.666Z,2.10
2022-08-08T08:55:01.602Z,2.40
2022-08-08T08:58:05.079Z,1.83
2022-08-08T09:01:14.903Z,2.22
2022-08-08T09:04:31.626Z,2.45
2022-08-08T09:07:52.310Z,2.10
2022-08-08T09:11:06.189Z,2.20
2022-08-08T09:14:10.040Z,2.08
2022-08-08T09:17:18.743Z,2.30
2022-08-08T09:22:02.947Z,2.38
2022-08-08T09:23:46.311Z,2.28
2022-08-08T09:27:00.453Z,2.00
2022-08-08T09:30:08.504Z,2.63
2022-08-08T09:34:15.160Z,2.17
2022-08-08T09:36:51.653Z,2.03
2022-08-08T09:40:11.199Z,2.30
2022-08-08T09:43:24.016Z,2.05
2022-08-08T09:46:45.097Z,1.80
2022-08-08T09:49:51.554Z,2.38
2022-08-08T09:53:00.894Z,2.05
2022-08-08T09:56:12.600Z,2.00
2022-08-08T10:00:01.749Z,2.50
2022-08-08T10:02:53.674Z,2.50
2022-08-08T10:05:57.674Z,2.20
2022-08-08T10:09:00.677Z,2.28
2022-08-08T10:12:26.084Z,2.50
2022-08-08T10:15:29.358Z,2.80
2022-08-08T10:18:34.264Z,2.45
2022-08-08T10:21:42.261Z,2.13
2022-08-08T10:25:00.084Z,2.22
2022-08-08T10:28:04.864Z,2.15
2022-08-08T10:31:47.526Z,2.38
2022-08-08T10:34:57.071Z,2.10
2022-08-08T10:38:08.251Z,2.15
2022-08-08T10:41:20.109Z,2.50
2022-08-08T10:44:30.652Z,2.60
2022-08-08T10:47:43.746Z,2.13
2022-08-08T10:50:51.402Z,2.50
2022-08-08T10:53:59.122Z,2.00
2022-08-08T10:57:04.480Z,1.90
2022-08-08T11:00:12.262Z,1.70
2022-08-08T11:03:17.973Z,2.05
2022-08-08T11:06:20.690Z,2.30
2022-08-08T11:09:24.740Z,1.92
2022-08-08T11:12:28.811Z,2.00
2022-08-08T11:15:31.838Z,2.00
2022-08-08T11:18:35.564Z,1.90
2022-08-08T11:21:45.207Z,2.13
2022-08-08T11:25:03.125Z,2.28
2022-08-08T11:28:24.901Z,2.10
2022-08-08T11:31:43.234Z,2.00
2022-08-08T11:35:10.491Z,1.88
2022-08-08T11:38:36.115Z,2.33
2022-08-08T11:41:45.031Z,2.08
2022-08-08T11:44:49.192Z,2.08
2022-08-08T11:48:02.495Z,1.90
2022-08-08T11:51:30.054Z,2.00
2022-08-08T11:54:33.868Z,2.22
2022-08-08T11:57:38.907Z,1.90
2022-08-08T12:00:45.378Z,2.03
2022-08-08T12:03:53.941Z,2.00
2022-08-08T12:07:04.888Z,2.15
2022-08-08T12:10:18.711Z,1.88
2022-08-08T12:13:38.148Z,2.10
2022-08-08T12:16:49.426Z,1.85
2022-08-08T12:19:57.624Z,1.88
2022-08-08T12:23:00.463Z,1.67
2022-08-08T12:26:09.694Z,1.60
2022-08-08T12:29:40.579Z,1.70
2022-08-08T12:32:46.410Z,1.77
2022-08-08T12:35:52.852Z,1.63
2022-08-08T12:38:55.891Z,1.75
2022-08-08T12:42:01.475Z,1.85
2022-08-08T12:45:53.508Z,1.50
2022-08-08T12:48:38.095Z,1.60
2022-08-08T12:51:42.186Z,1.77
2022-08-08T12:55:09.462Z,1.65
2022-08-08T12:58:19.773Z,1.70
2022-08-08T13:01:36.869Z,1.58
2022-08-08T13:04:51.223Z,1.20
2022-08-08T13:08:03.094Z,1.40
2022-08-08T13:11:18.594Z,1.55
2022-08-08T13:14:21.252Z,1.30
2022-08-08T13:18:09.078Z,1.67
2022-08-08T13:20:50.541Z,1.33
2022-08-08T13:23:56.021Z,1.40
2022-08-08T13:27:02.874Z,1.10
2022-08-08T13:30:07.433Z,1.40
2022-08-08T13:33:11.979Z,1.23
2022-08-08T13:36:26.057Z,1.30
2022-08-08T13:39:29.325Z,1.00
2022-08-08T13:42:32.511Z,1.10
2022-08-08T13:45:36.782Z,1.35
2022-08-08T13:49:12.182Z,1.40
2022-08-08T13:52:23.145Z,1.20
2022-08-08T13:55:38.667Z,1.40
2022-08-08T13:58:57.234Z,1.38
2022-08-08T14:02:07.567Z,1.20
2022-08-08T14:05:22.038Z,1.10
2022-08-08T14:08:30.432Z,1.23
2022-08-08T14:11:37.745Z,1.30
2022-08-08T14:14:42.870Z,1.40
2022-08-08T14:17:59.072Z,1.30
2022-08-08T14:21:21.091Z,1.48
2022-08-08T14:24:31.539Z,1.40
2022-08-08T14:27:36.221Z,1.20
2022-08-08T14:30:40.253Z,1.30
2022-08-08T14:33:54.957Z,1.10
2022-08-08T14:36:59.109Z,1.02
2022-08-08T14:40:06.093Z,1.48
2022-08-08T14:43:31.120Z,1.30
2022-08-08T14:46:33.085Z,1.40
2022-08-08T14:49:51.495Z,1.30
2022-08-08T14:53:03.516Z,1.30
2022-08-08T14:56:07.553Z,1.35
2022-08-08T14:59:22.204Z,1.23
2022-08-08T15:02:35.707Z,1.40
2022-08-08T15:05:43.197Z,1.40
2022-08-08T15:08:58.762Z,1.35
2022-08-08T15:12:01.545Z,1.50
2022-08-08T15:15:09.187Z,1.58
2022-08-08T15:18:12.274Z,1.40
2022-08-08T15:21:14.914Z,1.52
2022-08-08T15:24:20.022Z,1.25
2022-08-08T15:28:04.079Z,1.27
2022-08-08T15:30:48.814Z,2.20
2022-08-08T15:33:59.055Z,1.48
2022-08-08T15:37:05.690Z,1.50
2022-08-08T15:40:11.165Z,1.30
2022-08-08T15:43:35.401Z,1.30
2022-08-08T15:46:39.114Z,1.60
2022-08-08T15:49:48.921Z,1.63
2022-08-08T15:52:52.577Z,1.73
2022-08-08T15:55:57.150Z,1.45
2022-08-08T15:59:01.790Z,1.58
2022-08-08T16:02:08.907Z,1.33
2022-08-08T16:05:15.841Z,1.65
2022-08-08T16:08:20.293Z,1.38
2022-08-08T16:13:09.378Z,1.77
2022-08-08T16:14:53.630Z,1.50
2022-08-08T16:18:06.759Z,11.45
2022-08-08T16:21:26.071Z,15.63
2022-08-08T16:24:29.820Z,8.55
2022-08-08T16:27:35.309Z,18.50
2022-08-08T16:30:40.442Z,4.97
2022-08-08T16:33:57.956Z,17.90
2022-08-08T16:37:01.965Z,2.83
2022-08-08T16:40:07.168Z,1.83
2022-08-08T16:43:11.393Z,10.45
2022-08-08T16:46:43.196Z,3.55
2022-08-08T16:49:38.673Z,3.20
2022-08-08T16:55:23.146Z,1.50
2022-08-08T16:56:08.856Z,2.70
2022-08-08T16:59:18.389Z,2.28
2022-08-08T17:02:38.624Z,2.30
2022-08-08T17:05:45.215Z,3.35
2022-08-08T17:08:48.081Z,4.03
2022-08-08T17:11:55.556Z,1.60
2022-08-08T17:15:17.242Z,2.20
2022-08-08T17:18:24.995Z,3.92
2022-08-08T17:21:27.647Z,1.70
2022-08-08T17:24:34.729Z,1.92
2022-08-08T17:27:46.612Z,1.52
2022-08-08T17:30:51.402Z,1.65
2022-08-08T17:34:48.199Z,2.13
2022-08-08T17:37:28.946Z,1.45
2022-08-08T17:40:35.859Z,1.40
2022-08-08T17:44:00.608Z,2.13
2022-08-08T17:47:04.109Z,4.18
2022-08-08T17:50:07.856Z,1.20
2022-08-08T17:53:12.267Z,1.63
2022-08-08T17:56:14.878Z,1.73
2022-08-08T17:59:19.089Z,1.60
2022-08-08T18:02:29.181Z,1.50
2022-08-08T18:05:48.786Z,1.45
2022-08-08T18:08:55.409Z,1.30
2022-08-08T18:11:59.461Z,1.27
2022-08-08T18:15:02.958Z,1.07
2022-08-08T18:18:29.537Z,1.40
2022-08-08T18:22:01.285Z,1.40
2022-08-08T18:24:57.058Z,1.40
2022-08-08T18:27:59.659Z,0.93
2022-08-08T18:31:06.883Z,1.30
2022-08-08T18:34:25.912Z,1.30
2022-08-08T18:37:47.791Z,1.30
2022-08-08T18:40:51.251Z,1.60
2022-08-08T18:43:56.795Z,1.23
2022-08-08T18:46:59.395Z,1.60
2022-08-08T18:50:04.094Z,1.30
2022-08-08T18:53:06.989Z,1.33
2022-08-08T18:56:20.981Z,2.00
2022-08-08T18:59:24.571Z,1.40
2022-08-08T19:02:36.927Z,1.30
2022-08-08T19:05:52.117Z,1.10
2022-08-08T19:08:54.725Z,1.40
2022-08-08T19:11:57.336Z,1.43
2022-08-08T19:15:00.290Z,1.60
2022-08-08T19:18:31.795Z,1.33
2022-08-08T19:21:47.835Z,1.50
2022-08-08T19:25:05.728Z,1.20
2022-08-08T19:28:17.709Z,1.80
2022-08-08T19:31:22.851Z,1.30
2022-08-08T19:34:39.035Z,1.53
2022-08-08T19:37:47.030Z,1.60
2022-08-08T19:40:56.254Z,1.53
2022-08-08T19:44:02.966Z,1.60
2022-08-08T19:47:07.222Z,1.63
2022-08-08T19:50:14.880Z,1.70
2022-08-08T19:53:52.075Z,1.40
2022-08-08T19:56:41.763Z,1.50
2022-08-08T19:59:51.776Z,1.60
2022-08-08T20:02:54.400Z,1.60
2022-08-08T20:06:15.656Z,1.77
2022-08-08T20:09:22.863Z,1.90
2022-08-08T20:12:32.634Z,1.77
2022-08-08T20:15:52.641Z,1.60
2022-08-08T20:19:01.486Z,1.80
2022-08-08T20:22:05.093Z,1.73
2022-08-08T20:25:20.415Z,1.77
2022-08-08T20:28:32.318Z,1.90
2022-08-08T20:32:02.829Z,1.93
2022-08-08T20:35:00.617Z,1.80
2022-08-08T20:38:03.698Z,1.70
2022-08-08T20:41:17.258Z,1.90
2022-08-08T20:44:21.806Z,1.80
2022-08-08T20:47:36.617Z,1.80
2022-08-08T20:50:42.019Z,1.60
2022-08-08T20:53:59.888Z,1.83
2022-08-08T20:57:17.198Z,1.50
2022-08-08T21:00:23.550Z,1.50
2022-08-08T21:03:29.910Z,1.63
2022-08-08T21:06:53.046Z,1.60
2022-08-08T21:10:07.775Z,1.73
2022-08-08T21:13:16.275Z,2.00
2022-08-08T21:16:20.784Z,1.50
2022-08-08T21:19:44.076Z,1.60
2022-08-08T21:22:48.665Z,1.80
2022-08-08T21:25:53.321Z,1.73
2022-08-08T21:29:00.957Z,1.60
2022-08-08T21:32:07.649Z,1.53
2022-08-08T21:36:19.183Z,1.40
2022-08-08T21:38:39.780Z,1.50
2022-08-08T21:41:53.816Z,1.73
2022-08-08T21:45:44.502Z,1.60
2022-08-08T21:48:35.193Z,1.43
2022-08-08T21:52:09.766Z,1.50
2022-08-08T21:55:24.206Z,2.00
2022-08-08T21:58:37.264Z,1.67
2022-08-08T22:01:43.064Z,1.60
2022-08-08T22:04:45.726Z,1.93
2022-08-08T22:07:49.828Z,1.80
2022-08-08T22:10:54.046Z,1.80
2022-08-08T22:13:57.273Z,1.50
2022-08-08T22:17:02.529Z,1.30
2022-08-08T22:20:11.108Z,1.60
2022-08-08T22:23:18.443Z,1.80
2022-08-08T22:26:26.897Z,1.70
2022-08-08T22:30:01.141Z,1.73
2022-08-08T22:32:56.775Z,1.50
2022-08-08T22:36:04.697Z,1.77
2022-08-08T22:39:19.779Z,1.63
2022-08-08T22:42:27.046Z,1.90
2022-08-08T22:45:30.439Z,1.80
2022-08-08T22:48:34.435Z,2.10
2022-08-08T22:51:46.020Z,1.47
2022-08-08T22:54:58.810Z,1.60
2022-08-08T22:58:07.215Z,1.90
2022-08-08T23:01:26.659Z,1.80
2022-08-08T23:04:36.390Z,1.87
2022-08-08T23:07:51.310Z,1.57
2022-08-08T23:11:06.455Z,1.70
2022-08-08T23:14:16.088Z,1.63
2022-08-08T23:17:18.894Z,2.00
2022-08-08T23:20:27.453Z,1.50
2022-08-08T23:23:31.422Z,1.80
2022-08-08T23:26:34.529Z,1.73
2022-08-08T23:29:38.097Z,1.53
2022-08-08T23:32:44.014Z,1.60
2022-08-08T23:36:07.332Z,1.60
2022-08-08T23:39:10.931Z,1.80
2022-08-08T23:42:13.554Z,1.70
2022-08-08T23:45:16.174Z,1.53
2022-08-08T23:49:00.269Z,1.57
2022-08-08T23:52:05.860Z,1.80
2022-08-08T23:55:14.053Z,1.77
2022-08-08T23:58:32.016Z,1.73
